sensor_id;sensor_type;location;lat;lon;timestamp;P1;durP1;ratioP1;P2;durP2;ratioP2
78205;SDS011;67480;48.920;12.880;2023-09-19T00:00:59;4.68;;;1.00;;
78205;SDS011;67480;48.920;12.880;2023-09-19T00:03:24;3.38;;;1.23;;
78205;SDS011;67480;48.920;12.880;2023-09-19T00:05:50;2.58;;;1.15;;
78205;SDS011;67480;48.920;12.880;2023-09-19T00:08:15;1.70;;;0.90;;
78205;SDS011;67480;48.920;12.880;2023-09-19T00:10:41;3.53;;;1.33;;
78205;SDS011;67480;48.920;12.880;2023-09-19T00:13:07;2.20;;;1.10;;
78205;SDS011;67480;48.920;12.880;2023-09-19T00:15:38;2.35;;;1.27;;
78205;SDS011;67480;48.920;12.880;2023-09-19T00:18:08;0.88;;;0.85;;
78205;SDS011;67480;48.920;12.880;2023-09-19T00:20:37;2.20;;;1.00;;
78205;SDS011;67480;48.920;12.880;2023-09-19T00:23:03;4.35;;;1.30;;
78205;SDS011;67480;48.920;12.880;2023-09-19T00:25:29;1.08;;;0.88;;
78205;SDS011;67480;48.920;12.880;2023-09-19T00:27:55;2.05;;;0.90;;
78205;SDS011;67480;48.920;12.880;2023-09-19T00:30:20;2.42;;;1.33;;
78205;SDS011;67480;48.920;12.880;2023-09-19T00:32:49;1.33;;;1.13;;
78205;SDS011;67480;48.920;12.880;2023-09-19T00:35:19;3.80;;;1.23;;
78205;SDS011;67480;48.920;12.880;2023-09-19T00:37:49;2.65;;;1.00;;
78205;SDS011;67480;48.920;12.880;2023-09-19T00:40:14;4.40;;;1.27;;
78205;SDS011;67480;48.920;12.880;2023-09-19T00:42:42;2.75;;;1.35;;
78205;SDS011;67480;48.920;12.880;2023-09-19T00:45:09;1.77;;;1.00;;
78205;SDS011;67480;48.920;12.880;2023-09-19T00:47:37;2.67;;;1.20;;
78205;SDS011;67480;48.920;12.880;2023-09-19T00:50:04;2.67;;;1.27;;
78205;SDS011;67480;48.920;12.880;2023-09-19T00:52:33;2.78;;;1.50;;
78205;SDS011;67480;48.920;12.880;2023-09-19T00:55:01;1.90;;;1.20;;
78205;SDS011;67480;48.920;12.880;2023-09-19T00:57:27;1.30;;;1.10;;
78205;SDS011;67480;48.920;12.880;2023-09-19T00:59:54;1.60;;;1.35;;
78205;SDS011;67480;48.920;12.880;2023-09-19T01:02:21;4.15;;;1.30;;
78205;SDS011;67480;48.920;12.880;2023-09-19T01:04:46;1.98;;;1.40;;
78205;SDS011;67480;48.920;12.880;2023-09-19T01:07:12;1.55;;;1.45;;
78205;SDS011;67480;48.920;12.880;2023-09-19T01:09:40;4.93;;;1.45;;
78205;SDS011;67480;48.920;12.880;2023-09-19T01:12:06;3.47;;;1.40;;
78205;SDS011;67480;48.920;12.880;2023-09-19T01:17:39;2.45;;;1.25;;
78205;SDS011;67480;48.920;12.880;2023-09-19T01:20:15;2.63;;;1.40;;
78205;SDS011;67480;48.920;12.880;2023-09-19T01:31:19;1.98;;;1.20;;
78205;SDS011;67480;48.920;12.880;2023-09-19T01:33:59;2.67;;;1.13;;
78205;SDS011;67480;48.920;12.880;2023-09-19T01:36:33;3.92;;;1.33;;
78205;SDS011;67480;48.920;12.880;2023-09-19T01:39:01;1.63;;;1.33;;
78205;SDS011;67480;48.920;12.880;2023-09-19T01:41:56;2.58;;;1.20;;
78205;SDS011;67480;48.920;12.880;2023-09-19T01:44:28;6.32;;;1.65;;
78205;SDS011;67480;48.920;12.880;2023-09-19T01:47:03;3.30;;;1.38;;
78205;SDS011;67480;48.920;12.880;2023-09-19T01:49:36;3.42;;;1.17;;
78205;SDS011;67480;48.920;12.880;2023-09-19T01:52:11;2.42;;;1.33;;
78205;SDS011;67480;48.920;12.880;2023-09-19T01:54:51;1.67;;;1.20;;
78205;SDS011;67480;48.920;12.880;2023-09-19T01:57:22;3.88;;;1.30;;
78205;SDS011;67480;48.920;12.880;2023-09-19T02:00:07;1.70;;;1.15;;
78205;SDS011;67480;48.920;12.880;2023-09-19T02:02:40;2.17;;;1.20;;
78205;SDS011;67480;48.920;12.880;2023-09-19T02:05:09;2.40;;;1.30;;
78205;SDS011;67480;48.920;12.880;2023-09-19T02:07:36;3.42;;;1.17;;
78205;SDS011;67480;48.920;12.880;2023-09-19T02:10:04;2.97;;;1.42;;
78205;SDS011;67480;48.920;12.880;2023-09-19T02:15:52;3.42;;;1.48;;
78205;SDS011;67480;48.920;12.880;2023-09-19T02:18:18;2.42;;;1.13;;
78205;SDS011;67480;48.920;12.880;2023-09-19T02:20:43;2.30;;;1.20;;
78205;SDS011;67480;48.920;12.880;2023-09-19T02:23:09;3.05;;;1.33;;
78205;SDS011;67480;48.920;12.880;2023-09-19T02:25:35;2.17;;;1.48;;
78205;SDS011;67480;48.920;12.880;2023-09-19T02:28:01;1.60;;;1.10;;
78205;SDS011;67480;48.920;12.880;2023-09-19T02:30:28;2.85;;;1.20;;
78205;SDS011;67480;48.920;12.880;2023-09-19T02:32:53;2.08;;;1.30;;
78205;SDS011;67480;48.920;12.880;2023-09-19T02:35:19;3.28;;;1.40;;
78205;SDS011;67480;48.920;12.880;2023-09-19T02:37:45;1.33;;;1.10;;
78205;SDS011;67480;48.920;12.880;2023-09-19T02:40:10;7.68;;;1.45;;
78205;SDS011;67480;48.920;12.880;2023-09-19T02:42:46;2.47;;;1.27;;
78205;SDS011;67480;48.920;12.880;2023-09-19T02:45:14;1.48;;;1.08;;
78205;SDS011;67480;48.920;12.880;2023-09-19T02:47:41;2.65;;;1.63;;
78205;SDS011;67480;48.920;12.880;2023-09-19T02:50:06;2.17;;;1.15;;
78205;SDS011;67480;48.920;12.880;2023-09-19T02:52:34;1.63;;;1.20;;
78205;SDS011;67480;48.920;12.880;2023-09-19T02:54:59;2.58;;;1.45;;
78205;SDS011;67480;48.920;12.880;2023-09-19T02:57:26;1.60;;;1.30;;
78205;SDS011;67480;48.920;12.880;2023-09-19T02:59:52;5.47;;;1.40;;
78205;SDS011;67480;48.920;12.880;2023-09-19T03:02:18;1.73;;;1.20;;
78205;SDS011;67480;48.920;12.880;2023-09-19T03:04:44;2.42;;;1.42;;
78205;SDS011;67480;48.920;12.880;2023-09-19T03:07:10;2.65;;;1.40;;
78205;SDS011;67480;48.920;12.880;2023-09-19T03:09:36;2.00;;;1.20;;
78205;SDS011;67480;48.920;12.880;2023-09-19T03:12:02;1.77;;;1.40;;
78205;SDS011;67480;48.920;12.880;2023-09-19T03:14:29;2.85;;;1.80;;
78205;SDS011;67480;48.920;12.880;2023-09-19T03:16:59;2.58;;;1.70;;
78205;SDS011;67480;48.920;12.880;2023-09-19T03:19:25;4.10;;;1.50;;
78205;SDS011;67480;48.920;12.880;2023-09-19T03:21:51;2.28;;;1.40;;
78205;SDS011;67480;48.920;12.880;2023-09-19T03:24:16;1.58;;;1.40;;
78205;SDS011;67480;48.920;12.880;2023-09-19T03:26:42;2.97;;;1.52;;
78205;SDS011;67480;48.920;12.880;2023-09-19T03:29:07;4.03;;;1.65;;
78205;SDS011;67480;48.920;12.880;2023-09-19T03:31:35;3.47;;;1.23;;
78205;SDS011;67480;48.920;12.880;2023-09-19T03:34:01;3.78;;;1.50;;
78205;SDS011;67480;48.920;12.880;2023-09-19T03:36:28;2.00;;;1.40;;
78205;SDS011;67480;48.920;12.880;2023-09-19T03:38:58;9.85;;;2.20;;
78205;SDS011;67480;48.920;12.880;2023-09-19T03:41:23;2.80;;;1.52;;
78205;SDS011;67480;48.920;12.880;2023-09-19T03:43:49;3.95;;;1.55;;
78205;SDS011;67480;48.920;12.880;2023-09-19T03:46:20;2.25;;;1.23;;
78205;SDS011;67480;48.920;12.880;2023-09-19T03:48:56;3.28;;;1.38;;
78205;SDS011;67480;48.920;12.880;2023-09-19T03:54:51;2.65;;;1.42;;
78205;SDS011;67480;48.920;12.880;2023-09-19T03:57:51;3.53;;;1.83;;
78205;SDS011;67480;48.920;12.880;2023-09-19T04:00:36;3.05;;;1.50;;
78205;SDS011;67480;48.920;12.880;2023-09-19T04:03:21;2.10;;;1.40;;
78205;SDS011;67480;48.920;12.880;2023-09-19T04:06:08;1.48;;;1.33;;
78205;SDS011;67480;48.920;12.880;2023-09-19T04:09:04;3.42;;;1.60;;
78205;SDS011;67480;48.920;12.880;2023-09-19T04:11:42;3.03;;;1.77;;
78205;SDS011;67480;48.920;12.880;2023-09-19T04:14:43;2.85;;;1.60;;
78205;SDS011;67480;48.920;12.880;2023-09-19T04:17:33;2.75;;;1.50;;
78205;SDS011;67480;48.920;12.880;2023-09-19T04:20:37;2.75;;;1.30;;
78205;SDS011;67480;48.920;12.880;2023-09-19T04:23:37;2.03;;;1.50;;
78205;SDS011;67480;48.920;12.880;2023-09-19T04:26:09;2.67;;;1.60;;
78205;SDS011;67480;48.920;12.880;2023-09-19T04:28:57;1.40;;;1.30;;
78205;SDS011;67480;48.920;12.880;2023-09-19T04:31:31;2.00;;;1.67;;
78205;SDS011;67480;48.920;12.880;2023-09-19T04:34:18;3.90;;;1.70;;
78205;SDS011;67480;48.920;12.880;2023-09-19T04:36:52;2.13;;;1.48;;
78205;SDS011;67480;48.920;12.880;2023-09-19T04:39:31;2.75;;;1.83;;
78205;SDS011;67480;48.920;12.880;2023-09-19T04:42:02;3.38;;;1.90;;
78205;SDS011;67480;48.920;12.880;2023-09-19T04:44:34;3.08;;;1.30;;
78205;SDS011;67480;48.920;12.880;2023-09-19T04:47:14;4.53;;;1.90;;
78205;SDS011;67480;48.920;12.880;2023-09-19T04:49:41;1.75;;;1.42;;
78205;SDS011;67480;48.920;12.880;2023-09-19T04:52:09;2.00;;;1.40;;
78205;SDS011;67480;48.920;12.880;2023-09-19T04:54:37;2.17;;;1.45;;
78205;SDS011;67480;48.920;12.880;2023-09-19T04:57:06;2.55;;;1.45;;
78205;SDS011;67480;48.920;12.880;2023-09-19T04:59:32;3.10;;;2.13;;
78205;SDS011;67480;48.920;12.880;2023-09-19T05:01:58;2.95;;;1.98;;
78205;SDS011;67480;48.920;12.880;2023-09-19T05:04:24;1.70;;;1.60;;
78205;SDS011;67480;48.920;12.880;2023-09-19T05:06:49;5.75;;;1.98;;
78205;SDS011;67480;48.920;12.880;2023-09-19T05:09:15;3.05;;;1.90;;
78205;SDS011;67480;48.920;12.880;2023-09-19T05:11:45;2.97;;;1.90;;
78205;SDS011;67480;48.920;12.880;2023-09-19T05:14:10;2.42;;;1.67;;
78205;SDS011;67480;48.920;12.880;2023-09-19T05:16:36;3.03;;;1.63;;
78205;SDS011;67480;48.920;12.880;2023-09-19T05:19:02;2.17;;;1.80;;
78205;SDS011;67480;48.920;12.880;2023-09-19T05:21:27;3.67;;;1.98;;
78205;SDS011;67480;48.920;12.880;2023-09-19T05:23:56;3.15;;;1.83;;
78205;SDS011;67480;48.920;12.880;2023-09-19T05:26:21;3.15;;;1.67;;
78205;SDS011;67480;48.920;12.880;2023-09-19T05:28:47;3.28;;;1.80;;
78205;SDS011;67480;48.920;12.880;2023-09-19T05:31:15;4.50;;;2.00;;
78205;SDS011;67480;48.920;12.880;2023-09-19T05:33:41;3.92;;;2.00;;
78205;SDS011;67480;48.920;12.880;2023-09-19T05:36:07;3.67;;;2.00;;
78205;SDS011;67480;48.920;12.880;2023-09-19T05:38:35;2.58;;;1.75;;
78205;SDS011;67480;48.920;12.880;2023-09-19T05:41:02;3.50;;;1.83;;
78205;SDS011;67480;48.920;12.880;2023-09-19T05:43:27;2.92;;;1.80;;
78205;SDS011;67480;48.920;12.880;2023-09-19T05:45:53;2.80;;;1.90;;
78205;SDS011;67480;48.920;12.880;2023-09-19T05:48:21;7.07;;;2.05;;
78205;SDS011;67480;48.920;12.880;2023-09-19T05:50:47;4.57;;;2.22;;
78205;SDS011;67480;48.920;12.880;2023-09-19T05:53:13;4.68;;;2.40;;
78205;SDS011;67480;48.920;12.880;2023-09-19T05:55:40;3.75;;;2.38;;
78205;SDS011;67480;48.920;12.880;2023-09-19T05:58:05;2.28;;;1.90;;
78205;SDS011;67480;48.920;12.880;2023-09-19T06:00:31;2.50;;;2.03;;
78205;SDS011;67480;48.920;12.880;2023-09-19T06:02:57;3.13;;;2.20;;
78205;SDS011;67480;48.920;12.880;2023-09-19T06:05:23;2.30;;;2.00;;
78205;SDS011;67480;48.920;12.880;2023-09-19T06:07:51;2.47;;;2.22;;
78205;SDS011;67480;48.920;12.880;2023-09-19T06:10:17;3.25;;;2.00;;
78205;SDS011;67480;48.920;12.880;2023-09-19T06:12:43;3.63;;;2.50;;
78205;SDS011;67480;48.920;12.880;2023-09-19T06:15:12;4.18;;;2.28;;
78205;SDS011;67480;48.920;12.880;2023-09-19T06:17:50;2.40;;;2.00;;
78205;SDS011;67480;48.920;12.880;2023-09-19T06:20:20;3.88;;;2.17;;
78205;SDS011;67480;48.920;12.880;2023-09-19T06:22:47;2.00;;;1.83;;
78205;SDS011;67480;48.920;12.880;2023-09-19T06:25:13;2.13;;;1.80;;
78205;SDS011;67480;48.920;12.880;2023-09-19T06:27:44;2.88;;;1.50;;
78205;SDS011;67480;48.920;12.880;2023-09-19T06:30:22;3.65;;;2.03;;
78205;SDS011;67480;48.920;12.880;2023-09-19T06:32:57;4.25;;;2.20;;
78205;SDS011;67480;48.920;12.880;2023-09-19T06:35:23;3.40;;;2.58;;
78205;SDS011;67480;48.920;12.880;2023-09-19T06:37:51;2.22;;;2.00;;
78205;SDS011;67480;48.920;12.880;2023-09-19T06:40:17;2.75;;;2.00;;
78205;SDS011;67480;48.920;12.880;2023-09-19T06:42:44;2.10;;;1.70;;
78205;SDS011;67480;48.920;12.880;2023-09-19T06:45:11;3.00;;;2.05;;
78205;SDS011;67480;48.920;12.880;2023-09-19T06:47:47;2.78;;;1.70;;
78205;SDS011;67480;48.920;12.880;2023-09-19T06:50:20;1.73;;;1.60;;
78205;SDS011;67480;48.920;12.880;2023-09-19T06:52:48;2.03;;;1.60;;
78205;SDS011;67480;48.920;12.880;2023-09-19T06:55:18;2.88;;;1.80;;
78205;SDS011;67480;48.920;12.880;2023-09-19T06:57:45;2.10;;;1.50;;
78205;SDS011;67480;48.920;12.880;2023-09-19T07:00:14;1.83;;;1.58;;
78205;SDS011;67480;48.920;12.880;2023-09-19T07:02:41;1.88;;;1.30;;
78205;SDS011;67480;48.920;12.880;2023-09-19T07:05:07;2.55;;;1.50;;
78205;SDS011;67480;48.920;12.880;2023-09-19T07:07:33;2.80;;;1.55;;
78205;SDS011;67480;48.920;12.880;2023-09-19T07:10:00;2.58;;;1.70;;
78205;SDS011;67480;48.920;12.880;2023-09-19T07:12:30;3.17;;;1.52;;
78205;SDS011;67480;48.920;12.880;2023-09-19T07:14:56;3.72;;;2.05;;
78205;SDS011;67480;48.920;12.880;2023-09-19T07:17:22;1.83;;;1.70;;
78205;SDS011;67480;48.920;12.880;2023-09-19T07:19:49;3.17;;;2.03;;
78205;SDS011;67480;48.920;12.880;2023-09-19T07:22:15;4.30;;;2.40;;
78205;SDS011;67480;48.920;12.880;2023-09-19T07:24:41;2.75;;;1.73;;
78205;SDS011;67480;48.920;12.880;2023-09-19T07:27:06;2.40;;;1.70;;
78205;SDS011;67480;48.920;12.880;2023-09-19T07:29:31;1.80;;;1.55;;
78205;SDS011;67480;48.920;12.880;2023-09-19T07:31:57;2.08;;;1.52;;
78205;SDS011;67480;48.920;12.880;2023-09-19T07:34:22;3.15;;;1.98;;
78205;SDS011;67480;48.920;12.880;2023-09-19T07:36:49;2.60;;;1.98;;
78205;SDS011;67480;48.920;12.880;2023-09-19T07:39:15;4.82;;;1.98;;
78205;SDS011;67480;48.920;12.880;2023-09-19T07:41:40;3.97;;;2.40;;
78205;SDS011;67480;48.920;12.880;2023-09-19T07:44:07;2.83;;;2.53;;
78205;SDS011;67480;48.920;12.880;2023-09-19T07:46:32;3.22;;;2.85;;
78205;SDS011;67480;48.920;12.880;2023-09-19T07:48:58;3.55;;;2.60;;
78205;SDS011;67480;48.920;12.880;2023-09-19T07:51:24;4.45;;;3.03;;
78205;SDS011;67480;48.920;12.880;2023-09-19T07:53:49;4.82;;;2.50;;
78205;SDS011;67480;48.920;12.880;2023-09-19T07:56:14;4.20;;;2.67;;
78205;SDS011;67480;48.920;12.880;2023-09-19T07:58:40;3.40;;;2.53;;
78205;SDS011;67480;48.920;12.880;2023-09-19T08:01:09;3.25;;;2.03;;
78205;SDS011;67480;48.920;12.880;2023-09-19T08:03:35;3.10;;;2.20;;
78205;SDS011;67480;48.920;12.880;2023-09-19T08:06:05;2.38;;;2.17;;
78205;SDS011;67480;48.920;12.880;2023-09-19T08:08:32;3.63;;;2.30;;
78205;SDS011;67480;48.920;12.880;2023-09-19T08:10:57;3.05;;;2.10;;
78205;SDS011;67480;48.920;12.880;2023-09-19T08:13:23;2.40;;;2.08;;
78205;SDS011;67480;48.920;12.880;2023-09-19T08:15:49;2.17;;;1.75;;
78205;SDS011;67480;48.920;12.880;2023-09-19T08:18:16;3.38;;;1.98;;
78205;SDS011;67480;48.920;12.880;2023-09-19T08:20:42;2.70;;;1.90;;
78205;SDS011;67480;48.920;12.880;2023-09-19T08:23:07;2.88;;;1.88;;
78205;SDS011;67480;48.920;12.880;2023-09-19T08:25:33;2.00;;;1.80;;
78205;SDS011;67480;48.920;12.880;2023-09-19T08:28:04;2.70;;;1.77;;
78205;SDS011;67480;48.920;12.880;2023-09-19T08:30:31;3.33;;;2.33;;
78205;SDS011;67480;48.920;12.880;2023-09-19T08:32:57;2.55;;;1.70;;
78205;SDS011;67480;48.920;12.880;2023-09-19T08:35:26;2.55;;;1.52;;
78205;SDS011;67480;48.920;12.880;2023-09-19T08:37:52;2.53;;;1.90;;
78205;SDS011;67480;48.920;12.880;2023-09-19T08:40:18;2.45;;;1.83;;
78205;SDS011;67480;48.920;12.880;2023-09-19T08:42:50;1.95;;;1.83;;
78205;SDS011;67480;48.920;12.880;2023-09-19T08:45:16;2.63;;;1.67;;
78205;SDS011;67480;48.920;12.880;2023-09-19T08:47:45;2.40;;;1.80;;
78205;SDS011;67480;48.920;12.880;2023-09-19T08:50:19;2.20;;;1.85;;
78205;SDS011;67480;48.920;12.880;2023-09-19T08:52:51;3.17;;;1.98;;
78205;SDS011;67480;48.920;12.880;2023-09-19T08:55:20;4.47;;;1.88;;
78205;SDS011;67480;48.920;12.880;2023-09-19T08:57:52;2.25;;;2.05;;
78205;SDS011;67480;48.920;12.880;2023-09-19T09:00:26;3.57;;;2.03;;
78205;SDS011;67480;48.920;12.880;2023-09-19T09:02:53;4.15;;;1.70;;
78205;SDS011;67480;48.920;12.880;2023-09-19T09:05:20;3.10;;;1.55;;
78205;SDS011;67480;48.920;12.880;2023-09-19T09:07:48;2.97;;;1.73;;
78205;SDS011;67480;48.920;12.880;2023-09-19T09:10:16;2.78;;;2.25;;
78205;SDS011;67480;48.920;12.880;2023-09-19T09:12:43;2.03;;;1.80;;
78205;SDS011;67480;48.920;12.880;2023-09-19T09:15:08;2.90;;;1.90;;
78205;SDS011;67480;48.920;12.880;2023-09-19T09:17:36;2.83;;;1.73;;
78205;SDS011;67480;48.920;12.880;2023-09-19T09:20:02;2.22;;;1.50;;
78205;SDS011;67480;48.920;12.880;2023-09-19T09:22:30;3.20;;;1.30;;
78205;SDS011;67480;48.920;12.880;2023-09-19T09:24:57;3.05;;;1.80;;
78205;SDS011;67480;48.920;12.880;2023-09-19T09:27:30;2.80;;;1.88;;
78205;SDS011;67480;48.920;12.880;2023-09-19T09:29:57;1.83;;;1.40;;
78205;SDS011;67480;48.920;12.880;2023-09-19T09:32:24;2.65;;;1.80;;
78205;SDS011;67480;48.920;12.880;2023-09-19T09:34:51;2.38;;;1.63;;
78205;SDS011;67480;48.920;12.880;2023-09-19T09:37:20;2.78;;;1.60;;
78205;SDS011;67480;48.920;12.880;2023-09-19T09:40:01;2.67;;;1.60;;
78205;SDS011;67480;48.920;12.880;2023-09-19T09:42:39;3.25;;;1.63;;
78205;SDS011;67480;48.920;12.880;2023-09-19T09:45:13;1.63;;;1.50;;
78205;SDS011;67480;48.920;12.880;2023-09-19T09:47:42;3.70;;;1.65;;
78205;SDS011;67480;48.920;12.880;2023-09-19T09:50:22;2.13;;;1.38;;
78205;SDS011;67480;48.920;12.880;2023-09-19T09:53:01;2.10;;;1.42;;
78205;SDS011;67480;48.920;12.880;2023-09-19T09:56:17;2.40;;;1.60;;
78205;SDS011;67480;48.920;12.880;2023-09-19T09:58:24;2.38;;;1.25;;
78205;SDS011;67480;48.920;12.880;2023-09-19T10:00:54;1.98;;;1.55;;
78205;SDS011;67480;48.920;12.880;2023-09-19T10:03:33;1.60;;;1.50;;
78205;SDS011;67480;48.920;12.880;2023-09-19T10:06:08;2.85;;;1.60;;
78205;SDS011;67480;48.920;12.880;2023-09-19T10:11:49;2.22;;;1.60;;
78205;SDS011;67480;48.920;12.880;2023-09-19T10:14:34;2.42;;;1.48;;
78205;SDS011;67480;48.920;12.880;2023-09-19T10:17:03;2.75;;;1.30;;
78205;SDS011;67480;48.920;12.880;2023-09-19T10:19:33;3.47;;;1.85;;
78205;SDS011;67480;48.920;12.880;2023-09-19T10:22:11;2.17;;;1.52;;
78205;SDS011;67480;48.920;12.880;2023-09-19T10:27:11;2.35;;;1.63;;
78205;SDS011;67480;48.920;12.880;2023-09-19T10:29:39;2.47;;;1.40;;
78205;SDS011;67480;48.920;12.880;2023-09-19T10:32:05;2.65;;;1.40;;
78205;SDS011;67480;48.920;12.880;2023-09-19T10:34:37;1.50;;;1.38;;
78205;SDS011;67480;48.920;12.880;2023-09-19T10:37:06;2.92;;;1.67;;
78205;SDS011;67480;48.920;12.880;2023-09-19T10:39:34;3.95;;;1.70;;
78205;SDS011;67480;48.920;12.880;2023-09-19T10:42:03;3.00;;;1.52;;
78205;SDS011;67480;48.920;12.880;2023-09-19T10:44:31;1.38;;;1.27;;
78205;SDS011;67480;48.920;12.880;2023-09-19T10:46:58;2.10;;;1.55;;
78205;SDS011;67480;48.920;12.880;2023-09-19T10:49:24;2.95;;;1.52;;
78205;SDS011;67480;48.920;12.880;2023-09-19T10:51:52;3.33;;;1.40;;
78205;SDS011;67480;48.920;12.880;2023-09-19T10:54:24;1.58;;;1.42;;
78205;SDS011;67480;48.920;12.880;2023-09-19T10:56:53;2.47;;;1.30;;
78205;SDS011;67480;48.920;12.880;2023-09-19T10:59:20;1.50;;;1.38;;
78205;SDS011;67480;48.920;12.880;2023-09-19T11:01:53;4.35;;;2.03;;
78205;SDS011;67480;48.920;12.880;2023-09-19T11:04:27;3.65;;;1.50;;
78205;SDS011;67480;48.920;12.880;2023-09-19T11:09:43;2.05;;;1.13;;
78205;SDS011;67480;48.920;12.880;2023-09-19T11:12:11;2.20;;;1.20;;
78205;SDS011;67480;48.920;12.880;2023-09-19T11:14:37;1.45;;;1.10;;
78205;SDS011;67480;48.920;12.880;2023-09-19T11:30:38;1.50;;;1.33;;
78205;SDS011;67480;48.920;12.880;2023-09-19T11:43:47;1.45;;;1.35;;
78205;SDS011;67480;48.920;12.880;2023-09-19T11:46:15;2.20;;;1.60;;
78205;SDS011;67480;48.920;12.880;2023-09-19T11:48:50;1.48;;;1.30;;
78205;SDS011;67480;48.920;12.880;2023-09-19T11:51:17;1.63;;;1.30;;
78205;SDS011;67480;48.920;12.880;2023-09-19T11:53:45;1.83;;;1.50;;
78205;SDS011;67480;48.920;12.880;2023-09-19T11:56:13;1.35;;;1.10;;
78205;SDS011;67480;48.920;12.880;2023-09-19T11:58:45;1.88;;;1.55;;
78205;SDS011;67480;48.920;12.880;2023-09-19T12:01:14;2.65;;;1.17;;
78205;SDS011;67480;48.920;12.880;2023-09-19T12:03:47;2.15;;;1.40;;
78205;SDS011;67480;48.920;12.880;2023-09-19T12:06:17;1.95;;;1.42;;
78205;SDS011;67480;48.920;12.880;2023-09-19T12:08:43;1.88;;;1.27;;
78205;SDS011;67480;48.920;12.880;2023-09-19T12:11:12;1.90;;;1.40;;
78205;SDS011;67480;48.920;12.880;2023-09-19T12:13:44;2.20;;;1.20;;
78205;SDS011;67480;48.920;12.880;2023-09-19T12:16:17;2.85;;;1.30;;
78205;SDS011;67480;48.920;12.880;2023-09-19T12:18:46;1.55;;;1.27;;
78205;SDS011;67480;48.920;12.880;2023-09-19T12:24:05;3.20;;;1.33;;
78205;SDS011;67480;48.920;12.880;2023-09-19T12:26:40;4.18;;;1.35;;
78205;SDS011;67480;48.920;12.880;2023-09-19T12:29:19;1.25;;;1.15;;
78205;SDS011;67480;48.920;12.880;2023-09-19T12:34:29;2.00;;;1.48;;
78205;SDS011;67480;48.920;12.880;2023-09-19T12:37:09;2.40;;;1.70;;
78205;SDS011;67480;48.920;12.880;2023-09-19T12:39:37;2.97;;;1.48;;
78205;SDS011;67480;48.920;12.880;2023-09-19T12:42:03;3.38;;;1.40;;
78205;SDS011;67480;48.920;12.880;2023-09-19T12:44:33;2.72;;;1.52;;
78205;SDS011;67480;48.920;12.880;2023-09-19T12:47:00;2.30;;;1.65;;
78205;SDS011;67480;48.920;12.880;2023-09-19T12:49:34;1.98;;;1.27;;
78205;SDS011;67480;48.920;12.880;2023-09-19T12:51:59;3.40;;;1.63;;
78205;SDS011;67480;48.920;12.880;2023-09-19T12:54:25;1.83;;;1.08;;
78205;SDS011;67480;48.920;12.880;2023-09-19T12:57:03;1.83;;;1.45;;
78205;SDS011;67480;48.920;12.880;2023-09-19T12:59:30;2.03;;;1.20;;
78205;SDS011;67480;48.920;12.880;2023-09-19T13:02:04;1.52;;;1.38;;
78205;SDS011;67480;48.920;12.880;2023-09-19T13:04:38;1.70;;;1.50;;
78205;SDS011;67480;48.920;12.880;2023-09-19T13:07:06;1.90;;;1.70;;
78205;SDS011;67480;48.920;12.880;2023-09-19T13:09:34;1.50;;;1.30;;
78205;SDS011;67480;48.920;12.880;2023-09-19T13:11:59;1.50;;;1.40;;
78205;SDS011;67480;48.920;12.880;2023-09-19T13:14:28;2.08;;;1.35;;
78205;SDS011;67480;48.920;12.880;2023-09-19T13:25:12;1.40;;;1.30;;
78205;SDS011;67480;48.920;12.880;2023-09-19T13:28:01;1.50;;;1.40;;
78205;SDS011;67480;48.920;12.880;2023-09-19T13:30:29;2.00;;;1.38;;
78205;SDS011;67480;48.920;12.880;2023-09-19T13:33:09;3.47;;;1.67;;
78205;SDS011;67480;48.920;12.880;2023-09-19T13:35:35;1.77;;;1.40;;
78205;SDS011;67480;48.920;12.880;2023-09-19T13:38:05;1.77;;;1.60;;
78205;SDS011;67480;48.920;12.880;2023-09-19T13:40:34;2.53;;;1.38;;
78205;SDS011;67480;48.920;12.880;2023-09-19T13:43:00;1.90;;;1.77;;
78205;SDS011;67480;48.920;12.880;2023-09-19T13:45:26;3.15;;;2.00;;
78205;SDS011;67480;48.920;12.880;2023-09-19T13:47:52;1.60;;;1.50;;
78205;SDS011;67480;48.920;12.880;2023-09-19T13:50:18;2.70;;;1.70;;
78205;SDS011;67480;48.920;12.880;2023-09-19T13:52:48;1.52;;;1.42;;
78205;SDS011;67480;48.920;12.880;2023-09-19T13:55:19;2.05;;;1.50;;
78205;SDS011;67480;48.920;12.880;2023-09-19T13:57:48;1.38;;;1.27;;
78205;SDS011;67480;48.920;12.880;2023-09-19T14:00:19;1.80;;;1.70;;
78205;SDS011;67480;48.920;12.880;2023-09-19T14:02:45;4.35;;;1.60;;
78205;SDS011;67480;48.920;12.880;2023-09-19T14:05:11;1.70;;;1.50;;
78205;SDS011;67480;48.920;12.880;2023-09-19T14:07:41;1.80;;;1.30;;
78205;SDS011;67480;48.920;12.880;2023-09-19T14:10:08;1.98;;;1.52;;
78205;SDS011;67480;48.920;12.880;2023-09-19T14:12:35;2.15;;;1.27;;
78205;SDS011;67480;48.920;12.880;2023-09-19T14:15:01;2.80;;;1.90;;
78205;SDS011;67480;48.920;12.880;2023-09-19T14:17:26;3.92;;;1.80;;
78205;SDS011;67480;48.920;12.880;2023-09-19T14:19:53;2.92;;;1.55;;
78205;SDS011;67480;48.920;12.880;2023-09-19T14:22:18;2.33;;;1.67;;
78205;SDS011;67480;48.920;12.880;2023-09-19T14:24:43;1.52;;;1.42;;
78205;SDS011;67480;48.920;12.880;2023-09-19T14:27:09;2.67;;;2.05;;
78205;SDS011;67480;48.920;12.880;2023-09-19T14:29:36;2.20;;;1.77;;
78205;SDS011;67480;48.920;12.880;2023-09-19T14:32:01;2.70;;;1.80;;
78205;SDS011;67480;48.920;12.880;2023-09-19T14:34:27;1.70;;;1.60;;
78205;SDS011;67480;48.920;12.880;2023-09-19T14:36:53;2.75;;;1.95;;
78205;SDS011;67480;48.920;12.880;2023-09-19T14:39:19;2.13;;;1.88;;
78205;SDS011;67480;48.920;12.880;2023-09-19T14:41:45;2.20;;;2.00;;
78205;SDS011;67480;48.920;12.880;2023-09-19T14:44:10;2.38;;;1.70;;
78205;SDS011;67480;48.920;12.880;2023-09-19T14:46:36;1.75;;;1.58;;
78205;SDS011;67480;48.920;12.880;2023-09-19T14:49:01;2.10;;;1.90;;
78205;SDS011;67480;48.920;12.880;2023-09-19T14:51:29;2.28;;;1.75;;
78205;SDS011;67480;48.920;12.880;2023-09-19T14:53:55;2.03;;;1.40;;
78205;SDS011;67480;48.920;12.880;2023-09-19T14:56:21;2.08;;;1.88;;
78205;SDS011;67480;48.920;12.880;2023-09-19T14:58:49;2.08;;;1.88;;
78205;SDS011;67480;48.920;12.880;2023-09-19T15:01:14;2.72;;;1.58;;
78205;SDS011;67480;48.920;12.880;2023-09-19T15:03:41;1.70;;;1.55;;
78205;SDS011;67480;48.920;12.880;2023-09-19T15:06:08;1.95;;;1.65;;
78205;SDS011;67480;48.920;12.880;2023-09-19T15:08:35;1.90;;;1.30;;
78205;SDS011;67480;48.920;12.880;2023-09-19T15:11:05;2.05;;;1.73;;
78205;SDS011;67480;48.920;12.880;2023-09-19T15:13:35;2.00;;;1.48;;
78205;SDS011;67480;48.920;12.880;2023-09-19T15:16:07;1.45;;;1.20;;
78205;SDS011;67480;48.920;12.880;2023-09-19T15:18:38;2.75;;;1.40;;
78205;SDS011;67480;48.920;12.880;2023-09-19T15:21:05;1.70;;;1.40;;
78205;SDS011;67480;48.920;12.880;2023-09-19T15:23:32;2.25;;;1.75;;
78205;SDS011;67480;48.920;12.880;2023-09-19T15:26:09;1.30;;;1.20;;
78205;SDS011;67480;48.920;12.880;2023-09-19T15:28:36;2.25;;;1.48;;
78205;SDS011;67480;48.920;12.880;2023-09-19T15:33:28;2.03;;;1.45;;
78205;SDS011;67480;48.920;12.880;2023-09-19T15:38:30;1.67;;;1.17;;
78205;SDS011;67480;48.920;12.880;2023-09-19T15:40:59;1.48;;;1.20;;
78205;SDS011;67480;48.920;12.880;2023-09-19T15:43:24;1.77;;;1.20;;
78205;SDS011;67480;48.920;12.880;2023-09-19T15:45:50;1.42;;;1.08;;
78205;SDS011;67480;48.920;12.880;2023-09-19T15:48:15;2.58;;;1.45;;
78205;SDS011;67480;48.920;12.880;2023-09-19T15:50:41;2.35;;;1.20;;
78205;SDS011;67480;48.920;12.880;2023-09-19T15:53:09;1.80;;;1.60;;
78205;SDS011;67480;48.920;12.880;2023-09-19T15:55:38;1.48;;;1.38;;